createdAt,value
2018-07-11T11:24:43.184Z,4780.00
2018-07-11T11:25:43.055Z,5300.00
2018-07-11T11:26:43.186Z,6304.00
2018-07-11T11:27:42.951Z,6600.00
2018-07-11T11:28:42.894Z,6492.00
2018-07-11T11:29:44.071Z,5664.00
2018-07-11T11:30:42.840Z,4240.00
2018-07-11T11:31:42.821Z,3796.00
2018-07-11T11:32:42.867Z,3396.00
2018-07-11T11:33:42.926Z,3416.00
2018-07-11T11:34:42.810Z,3668.00
2018-07-11T11:35:42.834Z,3840.00
2018-07-11T11:36:42.774Z,3912.00
2018-07-11T11:37:42.842Z,3660.00
2018-07-11T11:38:42.756Z,3416.00
2018-07-11T11:39:42.747Z,3720.00
2018-07-11T11:40:42.723Z,3968.00
2018-07-11T11:41:43.025Z,4024.00
2018-07-11T11:42:42.890Z,4788.00
2018-07-11T11:43:42.697Z,3856.00
2018-07-11T11:44:42.686Z,3392.00
2018-07-11T11:45:42.683Z,3372.00
2018-07-11T11:46:42.682Z,3332.00
2018-07-11T11:47:42.719Z,3328.00
2018-07-11T11:48:42.863Z,3268.00
2018-07-11T11:49:42.887Z,3188.00
2018-07-11T11:50:42.766Z,3180.00
2018-07-11T11:51:42.669Z,3304.00
2018-07-11T11:52:43.256Z,3472.00
2018-07-11T11:53:42.634Z,3860.00
2018-07-11T11:54:42.583Z,4360.00
2018-07-11T11:55:42.575Z,4832.00
2018-07-11T11:56:42.563Z,5000.00
2018-07-11T11:57:42.882Z,5080.00
2018-07-11T11:58:42.534Z,5144.00
2018-07-11T11:59:42.721Z,5332.00
2018-07-11T12:00:42.568Z,5476.00
2018-07-11T12:01:42.573Z,5572.00
2018-07-11T12:02:42.579Z,5868.00
2018-07-11T12:03:42.483Z,6020.00
2018-07-11T12:04:42.768Z,6404.00
2018-07-11T12:05:42.687Z,6912.00
2018-07-11T12:06:42.441Z,7084.00
2018-07-11T12:07:42.509Z,6848.00
2018-07-11T12:08:42.418Z,7052.00
2018-07-11T12:09:42.406Z,7188.00
2018-07-11T12:10:42.491Z,7084.00
2018-07-11T12:11:42.387Z,7684.00
2018-07-11T12:12:42.454Z,7756.00
2018-07-11T12:13:42.361Z,7132.00
2018-07-11T12:14:42.429Z,6600.00
2018-07-11T12:15:42.362Z,6880.00
2018-07-11T12:16:42.355Z,7436.00
2018-07-11T12:17:42.412Z,7072.00
2018-07-11T12:18:42.310Z,6944.00
2018-07-11T12:19:42.327Z,6912.00
2018-07-11T12:20:42.616Z,6556.00
2018-07-11T12:21:42.269Z,6644.00
2018-07-11T12:22:42.439Z,7048.00
2018-07-11T12:23:42.242Z,7524.00
2018-07-11T12:24:42.233Z,7836.00
2018-07-11T12:25:42.220Z,8392.00
2018-07-11T12:26:42.211Z,7980.00
2018-07-11T12:27:42.261Z,6896.00
2018-07-11T12:28:42.200Z,4704.00
2018-07-11T12:29:42.186Z,3976.00
2018-07-11T12:30:42.174Z,3828.00
2018-07-11T12:31:42.171Z,4040.00
2018-07-11T12:32:42.247Z,4488.00
2018-07-11T12:33:42.222Z,5116.00
2018-07-11T12:34:42.153Z,5944.00
2018-07-11T12:35:42.124Z,7068.00
2018-07-11T12:36:42.176Z,8300.00
2018-07-11T12:37:42.123Z,8992.00
2018-07-11T12:38:44.757Z,8968.00
2018-07-11T12:39:42.086Z,8972.00
2018-07-11T12:40:42.072Z,9096.00
2018-07-11T12:41:42.076Z,9208.00
2018-07-11T12:42:42.238Z,8944.00
2018-07-11T12:43:42.090Z,8684.00
2018-07-11T12:44:42.018Z,8732.00
2018-07-11T12:45:42.026Z,8676.00
2018-07-11T12:46:42.249Z,8172.00
2018-07-11T12:47:42.039Z,7740.00
2018-07-11T12:48:42.054Z,6688.00
2018-07-11T12:49:41.981Z,5132.00
2018-07-11T12:50:41.974Z,3552.00
2018-07-11T12:51:44.728Z,2984.00
2018-07-11T12:52:41.928Z,2856.00
2018-07-11T12:53:42.030Z,2872.00
2018-07-11T12:54:41.921Z,3092.00
2018-07-11T12:55:41.913Z,3584.00
2018-07-11T12:56:41.905Z,4076.00
2018-07-11T12:57:41.882Z,4852.00
2018-07-11T12:58:41.951Z,5836.00
2018-07-11T12:59:41.865Z,7080.00
2018-07-11T13:00:41.952Z,9004.00
2018-07-11T13:01:41.927Z,12136.00
2018-07-11T13:02:41.839Z,12856.00
2018-07-11T13:03:41.886Z,11052.00
2018-07-11T13:04:41.852Z,11928.00
2018-07-11T13:05:41.886Z,14592.00
2018-07-11T13:06:42.026Z,13056.00
2018-07-11T13:07:41.968Z,13700.00
2018-07-11T13:08:42.069Z,20608.00
2018-07-11T13:09:43.991Z,26432.00
2018-07-11T13:10:41.943Z,29248.00
2018-07-11T13:11:41.812Z,49088.00
2018-07-11T13:12:41.900Z,36352.00
2018-07-11T13:13:42.157Z,43040.00
2018-07-11T13:14:41.930Z,25376.00
2018-07-11T13:15:42.458Z,66016.00
2018-07-11T13:16:41.928Z,31712.00
2018-07-11T13:17:41.969Z,40832.00
2018-07-11T13:18:42.201Z,11328.00
2018-07-11T13:19:41.871Z,7748.00
2018-07-11T13:20:41.914Z,6104.00
2018-07-11T13:21:41.737Z,6060.00
2018-07-11T13:22:41.942Z,6160.00
2018-07-11T13:23:42.210Z,6208.00
2018-07-11T13:26:08.452Z,6248.00
2018-07-11T13:27:09.373Z,7312.00
2018-07-11T13:28:08.974Z,22240.00
2018-07-11T13:29:09.289Z,9832.00
2018-07-11T13:30:07.592Z,7392.00
2018-07-11T13:31:07.581Z,7272.00
2018-07-11T13:32:08.186Z,8028.00
2018-07-11T13:33:07.611Z,11976.00
2018-07-11T13:34:07.843Z,21024.00
2018-07-11T13:35:08.251Z,23296.00
2018-07-11T13:36:07.398Z,10820.00
2018-07-11T13:37:09.190Z,9836.00
2018-07-11T13:38:07.416Z,53568.00
2018-07-11T13:39:10.117Z,62336.00
2018-07-11T13:43:14.112Z,6180.00
